createdAt,value
2022-09-28T00:01:05.476Z,9.70
2022-09-28T00:03:33.464Z,9.70
2022-09-28T00:06:06.346Z,9.70
2022-09-28T00:08:35.139Z,9.70
2022-09-28T00:11:05.416Z,9.70
2022-09-28T00:13:33.683Z,9.70
2022-09-28T00:16:04.330Z,9.60
2022-09-28T00:18:35.062Z,9.60
2022-09-28T00:21:17.651Z,9.60
2022-09-28T00:24:07.726Z,9.60
2022-09-28T00:26:35.352Z,9.60
2022-09-28T00:29:03.068Z,9.70
2022-09-28T00:31:32.830Z,9.70
2022-09-28T00:34:02.353Z,9.60
2022-09-28T00:36:35.889Z,9.50
2022-09-28T00:39:08.145Z,9.40
2022-09-28T00:41:36.072Z,9.40
2022-09-28T00:44:22.569Z,9.40
2022-09-28T00:47:14.406Z,9.40
2022-09-28T00:50:04.528Z,9.40
2022-09-28T00:52:38.673Z,9.50
2022-09-28T00:55:08.552Z,9.50
2022-09-28T00:57:48.789Z,9.50
2022-09-28T01:00:17.042Z,9.50
2022-09-28T01:02:45.566Z,9.50
2022-09-28T01:05:14.216Z,9.50
2022-09-28T01:07:43.029Z,9.40
2022-09-28T01:10:10.830Z,9.40
2022-09-28T01:12:42.121Z,9.30
2022-09-28T01:15:16.656Z,9.30
2022-09-28T01:18:07.459Z,9.20
2022-09-28T01:20:39.538Z,9.10
2022-09-28T01:23:26.220Z,9.10
2022-09-28T01:25:54.626Z,9.10
2022-09-28T01:28:28.242Z,9.00
2022-09-28T01:31:12.864Z,9.10
2022-09-28T01:34:00.720Z,9.00
2022-09-28T01:36:31.308Z,9.00
2022-09-28T01:39:03.815Z,8.90
2022-09-28T01:41:33.628Z,8.90
2022-09-28T01:44:06.051Z,8.90
2022-09-28T01:46:42.138Z,8.90
2022-09-28T01:49:12.960Z,8.90
2022-09-28T01:51:44.707Z,8.90
2022-09-28T01:54:14.679Z,8.90
2022-09-28T01:56:51.998Z,9.00
2022-09-28T01:59:22.019Z,9.10
2022-09-28T02:02:32.610Z,9.10
2022-09-28T02:05:04.702Z,9.00
2022-09-28T02:07:35.342Z,9.00
2022-09-28T02:10:10.559Z,9.10
2022-09-28T02:12:42.626Z,9.00
2022-09-28T02:15:29.416Z,9.10
2022-09-28T02:17:58.326Z,9.00
2022-09-28T02:20:34.904Z,9.00
2022-09-28T02:23:04.691Z,9.10
2022-09-28T02:25:40.183Z,9.20
2022-09-28T02:28:10.424Z,9.20
2022-09-28T02:30:39.401Z,9.00
2022-09-28T02:33:11.930Z,9.00
2022-09-28T02:35:40.237Z,9.00
2022-09-28T02:38:07.937Z,8.90
2022-09-28T02:40:37.896Z,8.90
2022-09-28T02:43:15.033Z,8.90
2022-09-28T02:46:02.306Z,8.90
2022-09-28T02:49:17.434Z,8.90
2022-09-28T02:51:46.397Z,8.80
2022-09-28T02:54:40.636Z,8.90
2022-09-28T02:57:30.093Z,8.90
2022-09-28T03:00:14.793Z,8.80
2022-09-28T03:02:42.458Z,8.80
2022-09-28T03:05:17.531Z,8.80
2022-09-28T03:07:54.162Z,8.90
2022-09-28T03:10:33.892Z,8.90
2022-09-28T03:13:09.293Z,9.00
2022-09-28T03:15:37.812Z,9.10
2022-09-28T03:18:05.446Z,9.10
2022-09-28T03:20:34.075Z,9.10
2022-09-28T03:25:51.223Z,9.20
2022-09-28T03:28:19.527Z,9.20
2022-09-28T03:30:49.100Z,9.30
2022-09-28T03:33:16.720Z,9.30
2022-09-28T03:35:52.167Z,9.30
2022-09-28T03:38:20.824Z,9.40
2022-09-28T03:40:53.065Z,9.40
2022-09-28T03:43:21.063Z,9.40
2022-09-28T03:45:53.141Z,9.40
2022-09-28T03:48:25.079Z,9.40
2022-09-28T03:50:58.916Z,9.50
2022-09-28T03:53:26.958Z,9.40
2022-09-28T03:55:54.590Z,9.40
2022-09-28T03:58:27.883Z,9.40
2022-09-28T04:01:03.681Z,9.40
2022-09-28T04:03:35.504Z,9.20
2022-09-28T04:06:03.245Z,9.10
2022-09-28T04:08:30.894Z,9.10
2022-09-28T04:11:00.940Z,9.10
2022-09-28T04:13:29.032Z,9.10
2022-09-28T04:15:57.284Z,9.00
2022-09-28T04:18:26.273Z,9.00
2022-09-28T04:21:18.361Z,8.90
2022-09-28T04:23:55.970Z,8.90
2022-09-28T04:26:25.030Z,8.90
2022-09-28T04:29:11.429Z,8.90
2022-09-28T04:31:44.422Z,8.90
2022-09-28T04:34:22.490Z,8.90
2022-09-28T04:36:52.958Z,8.80
2022-09-28T04:39:28.669Z,8.80
2022-09-28T04:41:58.042Z,8.80
2022-09-28T04:44:25.584Z,8.80
2022-09-28T04:47:02.988Z,8.80
2022-09-28T04:49:35.611Z,8.80
2022-09-28T04:52:18.823Z,8.90
2022-09-28T04:54:50.929Z,8.80
2022-09-28T04:57:18.940Z,8.90
2022-09-28T04:59:46.481Z,8.90
2022-09-28T05:02:15.287Z,9.00
2022-09-28T05:05:02.005Z,9.00
2022-09-28T05:07:48.112Z,9.00
2022-09-28T05:10:15.996Z,9.10
2022-09-28T05:12:43.481Z,9.10
2022-09-28T05:15:12.156Z,9.10
2022-09-28T05:17:48.928Z,9.20
2022-09-28T05:20:44.212Z,9.20
2022-09-28T05:23:12.566Z,9.20
2022-09-28T05:25:42.991Z,9.20
2022-09-28T05:28:26.197Z,9.20
2022-09-28T05:31:13.004Z,9.20
2022-09-28T05:33:57.855Z,9.20
2022-09-28T05:36:27.410Z,9.20
2022-09-28T05:38:56.868Z,9.10
2022-09-28T05:41:26.037Z,9.00
2022-09-28T05:43:55.027Z,9.00
2022-09-28T05:46:23.896Z,9.00
2022-09-28T05:48:55.362Z,9.00
2022-09-28T05:51:25.390Z,8.90
2022-09-28T05:53:54.637Z,8.80
2022-09-28T05:56:22.993Z,8.80
2022-09-28T05:58:52.072Z,8.70
2022-09-28T06:01:21.887Z,8.70
2022-09-28T06:03:50.114Z,8.60
2022-09-28T06:06:19.331Z,8.50
2022-09-28T06:08:48.541Z,8.50
2022-09-28T06:11:39.610Z,8.50
2022-09-28T06:14:23.565Z,8.30
2022-09-28T06:16:52.079Z,8.30
2022-09-28T06:19:19.840Z,8.20
2022-09-28T06:22:11.262Z,8.20
2022-09-28T06:24:46.093Z,8.20
2022-09-28T06:27:14.346Z,8.10
2022-09-28T06:29:42.762Z,8.10
2022-09-28T06:32:12.383Z,8.10
2022-09-28T06:34:42.127Z,8.10
2022-09-28T06:37:10.739Z,8.00
2022-09-28T06:39:38.577Z,8.00
2022-09-28T06:42:10.400Z,8.00
2022-09-28T06:44:56.521Z,8.10
2022-09-28T06:47:45.208Z,8.10
2022-09-28T06:50:26.269Z,8.10
2022-09-28T06:53:33.140Z,8.10
2022-09-28T06:56:15.922Z,8.10
2022-09-28T06:58:44.014Z,8.10
2022-09-28T07:01:13.223Z,8.10
2022-09-28T07:03:55.676Z,8.10
2022-09-28T07:06:48.139Z,8.10
2022-09-28T07:09:50.281Z,8.00
2022-09-28T07:12:31.047Z,8.20
2022-09-28T07:15:02.311Z,8.20
2022-09-28T07:17:30.347Z,8.30
2022-09-28T07:20:12.779Z,8.20
2022-09-28T07:22:50.387Z,8.30
2022-09-28T07:25:27.631Z,8.20
2022-09-28T07:28:23.414Z,8.10
2022-09-28T07:31:20.167Z,8.20
2022-09-28T07:33:55.466Z,8.20
2022-09-28T07:36:30.512Z,8.30
2022-09-28T07:38:58.840Z,8.30
2022-09-28T07:41:33.682Z,8.30
2022-09-28T07:44:07.111Z,8.50
2022-09-28T07:46:37.239Z,8.40
2022-09-28T07:49:17.067Z,8.50
2022-09-28T07:52:03.331Z,8.60
2022-09-28T07:54:31.376Z,8.70
2022-09-28T07:57:13.381Z,8.90
2022-09-28T08:00:02.248Z,8.90
2022-09-28T08:02:43.865Z,8.90
2022-09-28T08:05:13.425Z,9.00
2022-09-28T08:07:42.722Z,9.10
2022-09-28T08:10:10.762Z,9.20
2022-09-28T08:12:59.315Z,9.40
2022-09-28T08:16:03.399Z,9.50
2022-09-28T08:18:54.290Z,9.60
2022-09-28T08:21:40.871Z,9.70
2022-09-28T08:24:08.203Z,9.70
2022-09-28T08:26:36.679Z,9.70
2022-09-28T08:29:04.043Z,10.00
2022-09-28T08:31:49.736Z,9.90
2022-09-28T08:34:36.453Z,10.10
2022-09-28T08:37:24.314Z,10.30
2022-09-28T08:40:18.640Z,10.40
2022-09-28T08:43:33.920Z,10.50
2022-09-28T08:46:23.806Z,10.50
2022-09-28T08:49:31.099Z,10.60
2022-09-28T08:52:16.376Z,10.50
2022-09-28T08:55:25.922Z,10.60
2022-09-28T08:58:05.028Z,10.70
2022-09-28T09:00:41.698Z,10.80
2022-09-28T09:03:13.525Z,10.80
2022-09-28T09:06:07.832Z,10.90
2022-09-28T09:09:02.464Z,11.00
2022-09-28T09:11:37.247Z,11.10
2022-09-28T09:14:17.448Z,11.00
2022-09-28T09:16:45.261Z,11.00
2022-09-28T09:19:56.554Z,11.10
2022-09-28T09:22:34.822Z,11.10
2022-09-28T09:25:05.635Z,11.10
2022-09-28T09:27:38.017Z,11.20
2022-09-28T09:30:06.864Z,11.20
2022-09-28T09:32:37.028Z,11.00
2022-09-28T09:35:28.215Z,11.00
2022-09-28T09:38:11.148Z,10.90
2022-09-28T09:40:51.085Z,10.90
2022-09-28T09:43:58.935Z,10.90
2022-09-28T09:46:55.900Z,10.90
2022-09-28T09:49:38.404Z,10.90
2022-09-28T09:52:18.820Z,10.80
2022-09-28T09:54:46.443Z,10.80
2022-09-28T09:57:51.402Z,10.70
2022-09-28T10:00:42.441Z,10.80
2022-09-28T10:03:25.033Z,11.00
2022-09-28T10:05:58.013Z,11.20
2022-09-28T10:08:27.184Z,11.30
2022-09-28T10:11:02.569Z,11.40
2022-09-28T10:13:33.212Z,11.50
2022-09-28T10:16:05.712Z,11.50
2022-09-28T10:18:51.841Z,11.60
2022-09-28T10:22:00.079Z,11.60
2022-09-28T10:24:32.384Z,11.60
2022-09-28T10:27:04.827Z,11.60
2022-09-28T10:29:37.521Z,11.70
2022-09-28T10:32:18.095Z,11.80
2022-09-28T10:34:50.206Z,12.00
2022-09-28T10:37:24.348Z,12.10
2022-09-28T10:40:06.167Z,12.40
2022-09-28T10:42:36.495Z,12.50
2022-09-28T10:45:25.190Z,12.60
2022-09-28T10:47:55.984Z,12.60
2022-09-28T10:50:28.432Z,12.60
2022-09-28T10:53:22.346Z,12.40
2022-09-28T10:56:22.326Z,12.30
2022-09-28T10:58:58.578Z,12.20
2022-09-28T11:01:41.352Z,12.30
2022-09-28T11:04:19.798Z,12.30
2022-09-28T11:06:47.997Z,12.50
2022-09-28T11:09:31.239Z,12.50
2022-09-28T11:12:05.999Z,12.70
2022-09-28T11:14:39.592Z,12.70
2022-09-28T11:17:18.579Z,12.70
2022-09-28T11:19:47.776Z,12.80
2022-09-28T11:22:26.199Z,12.80
2022-09-28T11:25:16.512Z,12.70
2022-09-28T11:27:44.051Z,12.60
2022-09-28T11:30:31.256Z,12.60
2022-09-28T11:33:30.318Z,12.40
2022-09-28T11:36:32.319Z,12.20
2022-09-28T11:39:16.498Z,11.90
2022-09-28T11:42:03.013Z,11.60
2022-09-28T11:44:37.608Z,11.40
2022-09-28T11:47:30.060Z,11.30
2022-09-28T11:50:02.205Z,11.20
2022-09-28T11:52:36.536Z,11.20
2022-09-28T11:55:22.946Z,11.20
2022-09-28T11:58:02.854Z,11.20
2022-09-28T12:00:34.035Z,11.30
2022-09-28T12:03:07.293Z,11.50
2022-09-28T12:05:47.455Z,11.70
2022-09-28T12:08:19.126Z,11.80
2022-09-28T12:11:17.434Z,11.90
2022-09-28T12:14:06.788Z,11.90
2022-09-28T12:19:32.614Z,12.10
2022-09-28T12:22:02.492Z,12.10
2022-09-28T12:24:33.488Z,12.00
2022-09-28T12:27:10.294Z,12.00
2022-09-28T12:29:43.568Z,12.10
2022-09-28T12:32:11.070Z,12.10
2022-09-28T12:34:40.779Z,12.00
2022-09-28T12:37:34.907Z,12.10
2022-09-28T12:40:07.224Z,12.10
2022-09-28T12:42:41.485Z,12.30
2022-09-28T12:45:09.004Z,12.40
2022-09-28T12:47:51.259Z,12.50
2022-09-28T12:50:39.129Z,12.50
2022-09-28T12:53:14.971Z,12.60
2022-09-28T12:55:56.437Z,12.70
2022-09-28T12:58:44.653Z,12.70
2022-09-28T13:01:35.920Z,12.80
2022-09-28T13:04:22.465Z,12.80
2022-09-28T13:06:59.191Z,12.90
2022-09-28T13:09:27.553Z,12.80
2022-09-28T13:12:01.086Z,12.70
2022-09-28T13:14:49.289Z,12.50
2022-09-28T13:17:16.710Z,12.30
2022-09-28T13:20:13.134Z,12.30
2022-09-28T13:23:00.483Z,12.50
2022-09-28T13:25:31.708Z,12.60
2022-09-28T13:28:01.330Z,12.80
2022-09-28T13:30:33.884Z,12.80
2022-09-28T13:33:03.311Z,12.80
2022-09-28T13:35:32.077Z,12.90
2022-09-28T13:38:17.786Z,12.90
2022-09-28T13:41:04.319Z,13.00
2022-09-28T13:43:34.307Z,13.10
2022-09-28T13:46:08.079Z,13.10
2022-09-28T13:48:48.545Z,13.10
2022-09-28T13:51:26.295Z,13.20
2022-09-28T13:53:56.948Z,13.10
2022-09-28T13:56:31.447Z,13.00
2022-09-28T13:59:17.954Z,13.00
2022-09-28T14:01:56.038Z,12.80
2022-09-28T14:04:25.272Z,12.60
2022-09-28T14:07:00.945Z,12.40
2022-09-28T14:09:47.079Z,12.40
2022-09-28T14:12:44.284Z,12.20
2022-09-28T14:15:30.791Z,12.10
2022-09-28T14:18:08.373Z,12.00
2022-09-28T14:20:36.519Z,12.00
2022-09-28T14:23:05.390Z,11.90
2022-09-28T14:25:36.005Z,11.80
2022-09-28T14:28:03.453Z,11.70
2022-09-28T14:30:40.308Z,11.60
2022-09-28T14:33:26.594Z,11.70
2022-09-28T14:35:59.252Z,11.70
2022-09-28T14:38:56.684Z,11.90
2022-09-28T14:41:31.434Z,12.00
2022-09-28T14:44:02.726Z,11.90
2022-09-28T14:46:32.296Z,12.20
2022-09-28T14:49:04.060Z,12.70
2022-09-28T14:51:33.228Z,12.90
2022-09-28T14:54:13.118Z,13.20
2022-09-28T14:56:40.895Z,13.30
2022-09-28T14:59:13.001Z,13.80
2022-09-28T15:01:46.575Z,13.60
2022-09-28T15:04:15.133Z,13.50
2022-09-28T15:06:48.260Z,13.60
2022-09-28T15:09:29.286Z,13.50
2022-09-28T15:12:14.526Z,13.20
2022-09-28T15:14:45.437Z,13.20
2022-09-28T15:17:14.941Z,13.10
2022-09-28T15:19:51.571Z,12.90
2022-09-28T15:22:20.268Z,13.10
2022-09-28T15:24:59.991Z,13.50
2022-09-28T15:27:37.599Z,13.90
2022-09-28T15:30:18.625Z,14.20
2022-09-28T15:32:46.228Z,13.90
2022-09-28T15:35:20.622Z,13.40
2022-09-28T15:37:52.298Z,13.30
2022-09-28T15:40:30.576Z,13.50
2022-09-28T15:42:59.373Z,13.30
2022-09-28T15:45:37.248Z,13.20
2022-09-28T15:48:20.963Z,13.10
2022-09-28T15:51:05.168Z,12.80
2022-09-28T15:53:33.251Z,12.70
2022-09-28T15:56:03.632Z,12.50
2022-09-28T15:58:31.205Z,12.30
2022-09-28T16:01:21.395Z,12.20
2022-09-28T16:03:49.174Z,12.20
2022-09-28T16:06:16.868Z,12.00
2022-09-28T16:08:57.018Z,11.80
2022-09-28T16:11:27.439Z,11.70
2022-09-28T16:14:18.349Z,11.50
2022-09-28T16:16:46.785Z,11.40
2022-09-28T16:19:23.691Z,11.30
2022-09-28T16:21:51.639Z,11.20
2022-09-28T16:24:24.465Z,11.10
2022-09-28T16:27:01.242Z,11.20
2022-09-28T16:29:42.876Z,11.10
2022-09-28T16:32:26.379Z,11.00
2022-09-28T16:35:06.406Z,10.90
2022-09-28T16:37:38.051Z,10.80
2022-09-28T16:40:05.753Z,10.80
2022-09-28T16:42:33.337Z,10.70
2022-09-28T16:45:03.303Z,10.70
2022-09-28T16:47:34.382Z,10.70
2022-09-28T16:50:04.091Z,10.70
2022-09-28T16:52:50.629Z,10.70
2022-09-28T16:55:40.542Z,10.70
2022-09-28T16:58:08.820Z,10.70
2022-09-28T17:00:36.547Z,10.80
2022-09-28T17:03:11.705Z,10.90
2022-09-28T17:05:40.205Z,10.90
2022-09-28T17:08:10.253Z,10.90
2022-09-28T17:11:13.907Z,10.90
2022-09-28T17:13:45.200Z,10.90
2022-09-28T17:16:17.899Z,10.90
2022-09-28T17:18:46.062Z,10.90
2022-09-28T17:21:15.803Z,10.80
2022-09-28T17:23:43.878Z,10.90
2022-09-28T17:26:17.824Z,10.90
2022-09-28T17:28:45.642Z,10.80
2022-09-28T17:31:15.244Z,10.80
2022-09-28T17:33:43.394Z,10.80
2022-09-28T17:36:13.602Z,10.80
2022-09-28T17:38:42.623Z,10.80
2022-09-28T17:41:19.449Z,10.80
2022-09-28T17:43:48.319Z,10.80
2022-09-28T17:46:30.194Z,10.80
2022-09-28T17:49:00.079Z,10.80
2022-09-28T17:51:30.244Z,10.80
2022-09-28T17:53:59.664Z,10.80
2022-09-28T17:56:32.251Z,10.80
2022-09-28T17:59:01.051Z,10.90
2022-09-28T18:01:33.965Z,10.80
2022-09-28T18:04:08.752Z,10.80
2022-09-28T18:06:39.676Z,10.80
2022-09-28T18:09:08.891Z,10.70
2022-09-28T18:11:40.275Z,10.60
2022-09-28T18:14:11.221Z,10.40
2022-09-28T18:16:39.383Z,10.40
2022-09-28T18:19:06.931Z,10.50
2022-09-28T18:21:34.493Z,10.50
2022-09-28T18:24:02.305Z,10.60
2022-09-28T18:26:30.586Z,10.50
2022-09-28T18:28:58.456Z,10.50
2022-09-28T18:31:27.721Z,10.50
2022-09-28T18:34:02.250Z,10.50
2022-09-28T18:36:31.344Z,10.50
2022-09-28T18:39:01.006Z,10.50
2022-09-28T18:41:28.472Z,10.50
2022-09-28T18:44:42.147Z,10.50
2022-09-28T18:47:15.113Z,10.40
2022-09-28T18:49:46.897Z,10.40
2022-09-28T18:52:14.490Z,10.50
2022-09-28T18:54:42.654Z,10.40
2022-09-28T18:57:10.542Z,10.40
2022-09-28T18:59:38.130Z,10.50
2022-09-28T19:02:13.899Z,10.50
2022-09-28T19:04:41.595Z,10.50
2022-09-28T19:07:09.077Z,10.50
2022-09-28T19:09:43.887Z,10.30
2022-09-28T19:12:12.187Z,10.20
2022-09-28T19:14:40.151Z,10.10
2022-09-28T19:17:07.606Z,10.10
2022-09-28T19:19:35.892Z,10.00
2022-09-28T19:22:03.680Z,9.90
2022-09-28T19:24:31.488Z,9.90
2022-09-28T19:26:58.973Z,9.80
2022-09-28T19:29:27.094Z,9.70
2022-09-28T19:31:56.849Z,9.70
2022-09-28T19:34:27.139Z,9.60
2022-09-28T19:36:55.170Z,9.60
2022-09-28T19:39:22.636Z,9.60
2022-09-28T19:41:51.651Z,9.60
2022-09-28T19:44:27.652Z,9.60
2022-09-28T19:46:59.898Z,9.50
2022-09-28T19:49:36.717Z,9.40
2022-09-28T19:52:13.351Z,9.40
2022-09-28T19:54:59.212Z,9.40
2022-09-28T19:57:29.248Z,9.30
2022-09-28T20:00:02.117Z,9.20
2022-09-28T20:02:33.277Z,9.20
2022-09-28T20:05:01.283Z,9.10
2022-09-28T20:07:32.937Z,9.00
2022-09-28T20:10:00.608Z,9.00
2022-09-28T20:12:28.841Z,8.90
2022-09-28T20:14:56.532Z,8.80
2022-09-28T20:17:27.722Z,8.70
2022-09-28T20:19:55.689Z,8.70
2022-09-28T20:22:23.314Z,8.50
2022-09-28T20:24:51.100Z,8.50
2022-09-28T20:27:22.006Z,8.40
2022-09-28T20:30:04.586Z,8.30
2022-09-28T20:32:32.725Z,8.20
2022-09-28T20:35:00.635Z,8.30
2022-09-28T20:37:28.067Z,8.30
2022-09-28T20:39:56.371Z,8.20
2022-09-28T20:42:24.351Z,8.00
2022-09-28T20:44:51.899Z,7.90
2022-09-28T20:47:19.412Z,7.90
2022-09-28T20:49:47.613Z,7.70
2022-09-28T20:52:15.197Z,7.70
2022-09-28T20:54:42.813Z,7.50
2022-09-28T20:57:20.221Z,7.50
2022-09-28T20:59:52.299Z,7.40
2022-09-28T21:02:22.500Z,7.30
2022-09-28T21:04:52.023Z,7.30
2022-09-28T21:07:19.549Z,7.20
2022-09-28T21:09:47.194Z,7.20
2022-09-28T21:12:15.546Z,7.10
2022-09-28T21:14:43.041Z,7.00
2022-09-28T21:17:10.784Z,7.00
2022-09-28T21:19:38.378Z,7.00
2022-09-28T21:22:06.892Z,7.00
2022-09-28T21:24:34.474Z,7.00
2022-09-28T21:27:02.512Z,6.90
2022-09-28T21:29:30.486Z,6.90
2022-09-28T21:31:58.184Z,6.80
2022-09-28T21:34:25.959Z,6.80
2022-09-28T21:36:54.620Z,6.80
2022-09-28T21:39:22.603Z,6.80
2022-09-28T21:41:50.617Z,6.80
2022-09-28T21:44:18.275Z,6.80
2022-09-28T21:46:46.248Z,6.80
2022-09-28T21:49:15.632Z,6.70
2022-09-28T21:51:43.173Z,6.60
2022-09-28T21:54:12.640Z,6.50
2022-09-28T21:56:40.061Z,6.60
2022-09-28T21:59:07.794Z,6.50
2022-09-28T22:01:35.469Z,6.50
2022-09-28T22:04:03.416Z,6.50
2022-09-28T22:06:31.976Z,6.40
2022-09-28T22:08:59.341Z,6.40
2022-09-28T22:11:27.951Z,6.40
2022-09-28T22:13:57.127Z,6.30
2022-09-28T22:16:25.549Z,6.30
2022-09-28T22:18:53.583Z,6.20
2022-09-28T22:21:22.506Z,6.10
2022-09-28T22:23:51.177Z,6.10
2022-09-28T22:26:20.169Z,6.00
2022-09-28T22:28:49.419Z,6.10
2022-09-28T22:31:17.370Z,5.90
2022-09-28T22:33:45.653Z,5.80
2022-09-28T22:36:17.183Z,5.80
2022-09-28T22:38:44.993Z,5.70
2022-09-28T22:41:17.287Z,5.80
2022-09-28T22:43:44.848Z,5.80
2022-09-28T22:46:14.105Z,5.70
2022-09-28T22:48:44.760Z,5.70
2022-09-28T22:51:12.710Z,5.70
2022-09-28T22:53:40.336Z,5.80
2022-09-28T22:56:15.945Z,5.70
2022-09-28T22:58:46.546Z,5.80
2022-09-28T23:01:14.469Z,5.90
2022-09-28T23:03:42.627Z,5.90
2022-09-28T23:06:10.999Z,6.00
2022-09-28T23:08:39.252Z,6.00
2022-09-28T23:11:07.127Z,6.00
2022-09-28T23:13:35.269Z,6.00
2022-09-28T23:16:04.083Z,5.90
2022-09-28T23:18:34.225Z,5.70
2022-09-28T23:21:06.057Z,5.80
2022-09-28T23:23:34.054Z,5.60
2022-09-28T23:26:22.391Z,5.60
2022-09-28T23:28:50.235Z,5.50
2022-09-28T23:31:19.625Z,5.50
2022-09-28T23:33:47.900Z,5.50
2022-09-28T23:36:16.399Z,5.50
2022-09-28T23:38:45.032Z,5.50
2022-09-28T23:41:12.515Z,5.60
2022-09-28T23:43:43.202Z,5.60
2022-09-28T23:46:10.827Z,5.60
2022-09-28T23:48:38.726Z,5.60
2022-09-28T23:51:07.831Z,5.60
2022-09-28T23:53:35.668Z,5.50
2022-09-28T23:56:03.698Z,5.50
2022-09-28T23:58:31.532Z,5.50
